Time;durP1;ratioP1;P1;durP2;ratioP2;P2;SDS_P1;SDS_P2;PMS_P1;PMS_P2;Temp;Humidity;BMP_temperature;BMP_pressure;BME280_temperature;BME280_humidity;BME280_pressure;Samples;Min_cycle;Max_cycle;Signal;HPM_P1;HPM_P2
2023/01/18 00:01:23;;;;;;;11.70;5.85;;;;;;;-2.48;100.00;99136.03;6219145;23;20017;-74
2023/01/18 00:03:49;;;;;;;7.03;5.25;;;;;;;-2.53;100.00;99138.31;6219386;23;20024;-75
2023/01/18 00:06:16;;;;;;;7.15;5.60;;;;;;;-2.54;100.00;99137.56;6218913;23;20017;-75
2023/01/18 00:08:43;;;;;;;7.20;5.18;;;;;;;-2.56;100.00;99137.22;6219470;23;20037;-75
2023/01/18 00:11:15;;;;;;;7.78;4.82;;;;;;;-2.56;100.00;99136.47;6218676;23;20435;-75
2023/01/18 00:13:42;;;;;;;7.00;5.15;;;;;;;-2.58;100.00;99134.25;6218876;23;20470;-74
2023/01/18 00:16:11;;;;;;;8.65;5.50;;;;;;;-2.58;100.00;99131.66;6218877;23;20407;-74
2023/01/18 00:18:38;;;;;;;9.52;5.32;;;;;;;-2.60;100.00;99133.91;6218932;23;20076;-75
2023/01/18 00:21:07;;;;;;;7.43;5.35;;;;;;;-2.63;100.00;99139.16;6191720;23;20041;-74
2023/01/18 00:23:35;;;;;;;6.97;5.28;;;;;;;-2.65;100.00;99129.13;6219446;23;20416;-74
2023/01/18 00:26:04;;;;;;;8.00;5.47;;;;;;;-2.66;100.00;99137.31;6218599;23;20035;-74
2023/01/18 00:28:30;;;;;;;8.45;5.35;;;;;;;-2.70;100.00;99134.75;6218424;23;20025;-74
2023/01/18 00:30:57;;;;;;;9.82;5.45;;;;;;;-2.74;100.00;99140.00;6218988;23;20014;-74
2023/01/18 00:33:23;;;;;;;8.60;5.68;;;;;;;-2.74;100.00;99134.06;6192100;23;20017;-74
2023/01/18 00:36:01;;;;;;;7.45;5.05;;;;;;;-2.72;100.00;99137.00;6219042;23;20020;-74
2023/01/18 00:38:29;;;;;;;10.10;5.70;;;;;;;-2.76;100.00;99136.31;6219093;23;20025;-74
2023/01/18 00:40:56;;;;;;;9.18;5.18;;;;;;;-2.80;100.00;99135.63;6218822;23;20450;-74
2023/01/18 00:43:38;;;;;;;11.73;5.15;;;;;;;-2.83;100.00;99133.78;6218229;23;20559;-74
2023/01/18 00:46:06;;;;;;;7.95;5.43;;;;;;;-2.83;100.00;99146.81;6218402;23;20019;-74
2023/01/18 00:48:34;;;;;;;6.38;5.18;;;;;;;-2.84;100.00;99140.88;6218824;23;20419;-74
2023/01/18 00:51:00;;;;;;;5.47;4.57;;;;;;;-2.85;100.00;99143.84;6218671;23;20013;-74
2023/01/18 00:53:27;;;;;;;5.85;4.45;;;;;;;-2.86;100.00;99144.97;6219187;23;20439;-75
2023/01/18 00:55:54;;;;;;;5.75;4.85;;;;;;;-2.89;100.00;99149.09;6218417;23;20047;-74
2023/01/18 00:58:20;;;;;;;5.60;4.55;;;;;;;-2.90;100.00;99150.22;6217977;23;20059;-74
2023/01/18 01:00:49;;;;;;;7.57;4.97;;;;;;;-2.89;100.00;99149.09;6218957;23;20517;-74
2023/01/18 01:03:16;;;;;;;7.13;4.72;;;;;;;-2.91;100.00;99146.13;6191620;23;20076;-75
2023/01/18 01:08:28;;;;;;;11.10;5.10;;;;;;;-2.94;100.00;99149.50;6218897;23;20022;-74
2023/01/18 01:11:06;;;;;;;14.80;5.53;;;;;;;-2.94;100.00;99156.59;6218487;23;20013;-75
2023/01/18 01:27:20;;;;;;;9.13;5.05;;;;;;;-3.08;100.00;99154.84;6219615;23;20013;-74
2023/01/18 01:29:46;;;;;;;7.07;4.72;;;;;;;-3.08;100.00;99152.22;6220404;23;20017;-75
2023/01/18 01:32:13;;;;;;;5.65;5.07;;;;;;;-3.09;100.00;99153.34;6219618;23;20017;-74
2023/01/18 01:34:40;;;;;;;9.85;5.18;;;;;;;-3.12;100.00;99152.25;6220543;23;20017;-77
2023/01/18 01:37:06;;;;;;;5.82;5.15;;;;;;;-3.14;100.00;99162.31;6219499;23;20044;-75
2023/01/18 01:39:33;;;;;;;11.48;5.45;;;;;;;-3.17;100.00;99157.13;6220125;23;20028;-75
2023/01/18 01:41:59;;;;;;;8.27;5.50;;;;;;;-3.17;100.00;99167.56;6219088;23;20020;-74
2023/01/18 01:44:32;;;;;;;12.25;5.97;;;;;;;-3.19;100.00;99160.13;6193747;23;20443;-75
2023/01/18 01:47:25;;;;;;;8.30;5.85;;;;;;;-3.19;100.00;99167.94;6219452;23;20009;-75
2023/01/18 01:49:56;;;;;;;;;;;;;;;-3.20;100.00;99170.94;6220110;23;20059;-75
2023/01/18 01:52:28;;;;;;;9.30;4.75;;;;;;;-3.22;100.00;99167.97;6220154;23;20276;-74
2023/01/18 01:55:11;;;;;;;4.47;3.90;;;;;;;-3.29;100.00;99173.97;6192892;23;20013;-74
2023/01/18 01:57:51;;;;;;;7.35;4.57;;;;;;;-3.30;100.00;99169.91;6220308;23;20017;-75
2023/01/18 02:00:22;;;;;;;10.00;5.32;;;;;;;-3.30;100.00;99167.28;6219711;23;20021;-75
2023/01/18 02:02:54;;;;;;;13.55;5.55;;;;;;;-3.30;100.00;99169.16;6219962;23;20434;-75
2023/01/18 02:05:22;;;;;;;7.63;5.28;;;;;;;-3.33;100.00;99172.53;6219980;23;20403;-74
2023/01/18 02:07:49;;;;;;;6.00;4.78;;;;;;;-3.34;100.00;99174.38;6219591;23;20025;-75
2023/01/18 02:10:16;;;;;;;8.43;5.35;;;;;;;-3.36;100.00;99185.19;6219145;23;20005;-75
2023/01/18 02:12:46;;;;;;;5.40;4.70;;;;;;;-3.38;100.00;99186.69;6219933;23;20462;-74
2023/01/18 02:15:12;;;;;;;9.68;4.47;;;;;;;-3.41;100.00;99185.56;6219361;23;20017;-74
2023/01/18 02:18:05;;;;;;;7.53;5.32;;;;;;;-3.46;100.00;99198.25;6219847;23;20017;-74
2023/01/18 02:21:11;;;;;;;5.50;4.68;;;;;;;-3.45;100.00;99202.34;6217774;23;20017;-74
2023/01/18 02:23:57;;;;;;;5.38;4.47;;;;;;;-3.44;100.00;99203.81;6191613;23;20021;-75
2023/01/18 02:26:29;;;;;;;7.40;4.85;;;;;;;-3.42;100.00;99202.31;6218316;23;20013;-74
2023/01/18 02:29:18;;;;;;;7.00;4.78;;;;;;;-3.48;100.00;99196.03;6219356;23;20087;-74
2023/01/18 02:32:02;;;;;;;8.80;4.43;;;;;;;-3.51;100.00;99202.00;6219602;23;20024;-74
2023/01/18 02:34:40;;;;;;;10.57;4.95;;;;;;;-3.50;100.00;99194.94;6220064;23;20505;-75
2023/01/18 02:37:24;;;;;;;6.97;4.53;;;;;;;-3.51;100.00;99206.44;6219337;23;20013;-74
2023/01/18 02:40:29;;;;;;;8.88;4.63;;;;;;;-3.51;100.00;99207.19;6218711;23;20021;-74
2023/01/18 02:46:49;;;;;;;6.40;4.10;;;;;;;-3.59;100.00;99216.16;6097084;23;20019;-75
2023/01/18 02:48:57;;;;;;;8.35;4.55;;;;;;;-3.59;100.00;99223.22;6090032;23;20078;-74
2023/01/18 02:51:24;;;;;;;7.65;5.00;;;;;;;-3.56;100.00;99220.59;6098052;23;20022;-75
2023/01/18 02:53:50;;;;;;;9.88;5.57;;;;;;;-3.57;100.00;99215.78;6097138;23;20023;-74
2023/01/18 02:56:33;;;;;;;7.80;4.63;;;;;;;-3.55;100.00;99218.75;6097538;23;20030;-74
2023/01/18 02:59:17;;;;;;;9.25;4.80;;;;;;;-3.55;100.00;99209.06;6097327;23;20079;-74
2023/01/18 03:01:54;;;;;;;6.32;5.10;;;;;;;-3.55;100.00;99218.75;6097854;23;20022;-75
2023/01/18 03:04:25;;;;;;;8.75;5.45;;;;;;;-3.55;100.00;99216.88;6097863;23;20029;-75
2023/01/18 03:07:08;;;;;;;8.30;4.75;;;;;;;-3.54;100.00;99217.63;6097186;23;20019;-76
2023/01/18 03:09:35;;;;;;;7.38;5.13;;;;;;;-3.54;100.00;99220.22;6072683;23;20061;-74
2023/01/18 03:12:46;;;;;;;7.80;4.65;;;;;;;-3.52;100.00;99216.13;6096907;23;20015;-74
2023/01/18 03:15:31;;;;;;;7.50;5.20;;;;;;;-3.52;100.00;99215.38;6097526;23;20031;-75
2023/01/18 03:18:10;;;;;;;6.28;5.07;;;;;;;-3.54;100.00;99215.75;6097673;23;20034;-76
2023/01/18 03:20:41;;;;;;;7.70;4.53;;;;;;;-3.52;100.00;99225.78;6158892;23;20025;-76
2023/01/18 03:25:59;;;;;;;7.15;4.63;;;;;;;-3.54;100.00;99223.56;6219334;23;20021;-74
2023/01/18 03:34:17;;;;;;;8.88;5.30;;;;;;;-3.57;100.00;99226.19;6218793;23;20017;-75
2023/01/18 03:36:46;;;;;;;6.55;4.72;;;;;;;-3.61;100.00;99225.50;6219142;23;20470;-75
2023/01/18 03:39:30;;;;;;;7.07;5.05;;;;;;;-3.62;100.00;99224.00;6218615;23;20112;-75
2023/01/18 03:42:01;;;;;;;13.05;5.28;;;;;;;-3.67;100.00;99224.41;6219459;23;20017;-76
2023/01/18 03:44:37;;;;;;;10.52;4.32;;;;;;;-3.72;100.00;99225.53;6192850;23;20017;-75
2023/01/18 03:47:05;;;;;;;6.55;4.88;;;;;;;-3.75;100.00;99234.84;6218650;23;20028;-74
2023/01/18 03:49:33;;;;;;;5.38;4.65;;;;;;;-3.72;100.00;99226.28;6219678;23;20009;-75
2023/01/18 03:52:16;;;;;;;6.95;4.75;;;;;;;-3.73;100.00;99224.06;6218627;23;20333;-75
2023/01/18 03:55:04;;;;;;;10.30;5.50;;;;;;;-3.74;100.00;99222.56;6219233;23;20017;-75
2023/01/18 03:57:54;;;;;;;7.93;4.75;;;;;;;-3.76;100.00;99224.81;6193035;23;20021;-74
2023/01/18 04:00:21;;;;;;;6.15;4.32;;;;;;;-3.78;100.00;99227.78;6192363;23;20473;-76
2023/01/18 04:02:49;;;;;;;8.07;5.10;;;;;;;-3.76;100.00;99235.94;6192524;23;20020;-77
2023/01/18 04:05:16;;;;;;;5.45;4.43;;;;;;;-3.77;100.00;99234.47;6218409;23;20013;-75
2023/01/18 04:07:43;;;;;;;7.53;5.05;;;;;;;-3.79;100.00;99236.72;6192276;23;20481;-75
2023/01/18 04:10:10;;;;;;;7.35;4.97;;;;;;;-3.80;100.00;99237.81;6218668;23;20105;-76
2023/01/18 04:12:37;;;;;;;7.45;5.57;;;;;;;-3.80;100.00;99237.09;6219491;23;20013;-74
2023/01/18 04:15:04;;;;;;;6.05;5.13;;;;;;;-3.86;100.00;99233.38;6218564;23;20023;-75
2023/01/18 04:17:30;;;;;;;6.03;4.50;;;;;;;-3.82;100.00;99240.06;6219327;23;20044;-75
2023/01/18 04:19:57;;;;;;;5.45;4.50;;;;;;;-3.82;100.00;99237.47;6191570;23;20363;-75
2023/01/18 04:22:23;;;;;;;7.47;5.38;;;;;;;-3.81;100.00;99235.59;6219122;23;20422;-75
2023/01/18 04:24:50;;;;;;;5.82;4.93;;;;;;;-3.84;100.00;99241.56;6219013;23;20023;-75
2023/01/18 04:27:16;;;;;;;7.47;5.65;;;;;;;-3.83;100.00;99237.84;6218938;23;20018;-74
2023/01/18 04:29:43;;;;;;;7.82;5.68;;;;;;;-3.83;100.00;99248.97;6219209;23;20467;-74
2023/01/18 04:32:09;;;;;;;10.07;5.50;;;;;;;-3.86;100.00;99238.59;6218479;23;20455;-74
2023/01/18 04:34:36;;;;;;;7.05;5.60;;;;;;;-3.85;100.00;99251.22;6191795;23;20017;-75
2023/01/18 04:37:02;;;;;;;9.48;5.85;;;;;;;-3.88;100.00;99251.97;6191808;23;20325;-75
2023/01/18 04:39:29;;;;;;;8.43;5.90;;;;;;;-3.87;100.00;99253.44;6219056;23;20017;-75
2023/01/18 04:41:55;;;;;;;8.75;5.45;;;;;;;-3.89;100.00;99252.34;6218924;23;20454;-75
2023/01/18 04:44:22;;;;;;;7.38;5.15;;;;;;;-3.87;100.00;99260.50;6191535;23;20100;-77
2023/01/18 04:46:49;;;;;;;8.27;5.82;;;;;;;-3.85;100.00;99266.06;6191763;23;20021;-77
2023/01/18 04:49:16;;;;;;;6.13;5.30;;;;;;;-3.85;100.00;99268.66;6217575;23;20518;-76
2023/01/18 04:51:44;;;;;;;7.75;5.05;;;;;;;-3.84;100.00;99270.16;6219231;23;20044;-77
2023/01/18 04:54:14;;;;;;;7.13;4.97;;;;;;;-3.83;100.00;99267.19;6218245;23;20017;-77
2023/01/18 04:56:41;;;;;;;11.90;6.15;;;;;;;-3.83;100.00;99269.78;6218876;23;20027;-77
2023/01/18 04:59:12;;;;;;;7.07;5.40;;;;;;;-3.82;100.00;99268.66;6192153;23;20024;-77
2023/01/18 05:01:39;;;;;;;8.48;5.75;;;;;;;-3.81;100.00;99270.16;6220438;23;20470;-77
2023/01/18 05:04:05;;;;;;;6.78;5.32;;;;;;;-3.76;100.00;99269.75;6192590;23;20017;-77
2023/01/18 05:06:32;;;;;;;8.50;5.15;;;;;;;-3.77;100.00;99270.88;6220494;23;20391;-76
2023/01/18 05:08:58;;;;;;;10.07;5.63;;;;;;;-3.80;100.00;99273.50;6219898;23;20025;-77
2023/01/18 05:11:25;;;;;;;9.82;5.72;;;;;;;-3.78;100.00;99284.25;6193438;23;20036;-76
2023/01/18 05:13:52;;;;;;;10.38;5.18;;;;;;;-3.81;100.00;99279.81;6219871;23;20024;-75
2023/01/18 05:16:21;;;;;;;9.57;6.15;;;;;;;-3.80;100.00;99282.03;6219631;23;20017;-76
2023/01/18 05:18:48;;;;;;;15.05;5.90;;;;;;;-3.84;100.00;99273.50;6219680;23;20013;-76
2023/01/18 05:21:15;;;;;;;11.93;5.28;;;;;;;-3.84;100.00;99288.34;6220002;23;20462;-76
2023/01/18 05:23:41;;;;;;;9.65;5.95;;;;;;;-3.84;100.00;99286.50;6219964;23;20009;-76
2023/01/18 05:26:18;;;;;;;7.30;4.90;;;;;;;-3.85;100.00;99287.63;6219383;23;20301;-75
2023/01/18 05:28:45;;;;;;;9.40;5.65;;;;;;;-3.85;100.00;99286.88;6220470;23;20020;-76
2023/01/18 05:31:13;;;;;;;8.95;5.47;;;;;;;-3.84;100.00;99290.97;6219655;23;20013;-76
2023/01/18 05:33:40;;;;;;;7.63;5.47;;;;;;;-3.88;100.00;99296.16;6219621;23;20013;-76
2023/01/18 05:36:07;;;;;;;6.10;5.20;;;;;;;-3.89;100.00;99292.09;6219694;23;20052;-76
2023/01/18 05:38:33;;;;;;;8.82;5.68;;;;;;;-3.87;100.00;99295.06;6220423;23;20013;-76
2023/01/18 05:41:00;;;;;;;7.03;4.90;;;;;;;-3.86;100.00;99303.59;6219458;23;20072;-76
2023/01/18 05:43:27;;;;;;;8.30;5.45;;;;;;;-3.88;100.00;99298.03;6220322;23;20009;-76
2023/01/18 05:45:54;;;;;;;6.40;5.20;;;;;;;-3.90;100.00;99306.19;6219876;23;20466;-76
2023/01/18 05:48:20;;;;;;;9.57;5.35;;;;;;;-3.91;100.00;99299.53;6218622;23;20527;-77
2023/01/18 05:50:47;;;;;;;8.77;5.78;;;;;;;-3.89;100.00;99310.28;6220258;23;20482;-76
2023/01/18 05:53:19;;;;;;;9.52;5.85;;;;;;;-3.89;100.00;99305.09;6219599;23;20027;-76
2023/01/18 05:55:57;;;;;;;6.75;4.78;;;;;;;-3.89;100.00;99312.88;6220157;23;20097;-76
2023/01/18 05:58:24;;;;;;;9.23;4.78;;;;;;;-3.88;100.00;99322.16;6219784;23;20020;-76
2023/01/18 06:00:51;;;;;;;8.75;5.32;;;;;;;-3.89;100.00;99320.69;6219638;23;20039;-76
2023/01/18 06:03:18;;;;;;;7.50;5.55;;;;;;;-3.91;100.00;99319.56;6219030;23;20013;-76
2023/01/18 06:05:46;;;;;;;7.32;5.28;;;;;;;-3.90;100.00;99324.41;6193068;23;20061;-76
2023/01/18 06:08:14;;;;;;;7.82;5.55;;;;;;;-3.87;100.00;99310.66;6219554;23;20051;-76
2023/01/18 06:10:40;;;;;;;7.25;5.28;;;;;;;-3.82;100.00;99319.94;6219665;23;20013;-75
2023/01/18 06:13:07;;;;;;;7.43;4.93;;;;;;;-3.81;100.00;99322.16;6192627;23;20407;-76
2023/01/18 06:15:34;;;;;;;9.57;4.97;;;;;;;-3.77;100.00;99332.56;6220035;23;20018;-76
2023/01/18 06:18:01;;;;;;;8.32;4.85;;;;;;;-3.78;100.00;99331.81;6218632;23;20017;-76
2023/01/18 06:20:29;;;;;;;5.65;4.40;;;;;;;-3.76;100.00;99334.78;6219889;23;20028;-76
2023/01/18 06:22:58;;;;;;;7.65;4.90;;;;;;;-3.75;100.00;99336.25;6219620;23;20092;-76
2023/01/18 06:25:26;;;;;;;8.48;5.05;;;;;;;-3.76;100.00;99342.56;6220156;23;20512;-75
2023/01/18 06:27:52;;;;;;;9.50;4.70;;;;;;;-3.76;100.00;99345.19;6219561;23;20013;-76
2023/01/18 06:30:19;;;;;;;11.38;5.47;;;;;;;-3.77;100.00;99354.09;6218947;23;20035;-76
2023/01/18 06:32:49;;;;;;;9.02;5.35;;;;;;;-3.76;100.00;99357.44;6219372;23;20013;-75
2023/01/18 06:35:16;;;;;;;7.80;4.95;;;;;;;-3.73;100.00;99364.50;6219173;23;20084;-76
2023/01/18 06:37:45;;;;;;;10.00;6.85;;;;;;;-3.72;100.00;99363.38;6219940;23;20013;-76
2023/01/18 06:40:13;;;;;;;9.10;6.50;;;;;;;-3.70;100.00;99361.13;6218751;23;20017;-76
2023/01/18 06:42:40;;;;;;;10.60;6.45;;;;;;;-3.67;100.00;99360.38;6219749;23;20021;-76
2023/01/18 06:45:07;;;;;;;9.95;6.78;;;;;;;-3.62;100.00;99369.66;6218548;23;20017;-76
2023/01/18 06:47:33;;;;;;;7.43;5.85;;;;;;;-3.58;100.00;99362.56;6192576;23;20485;-76
2023/01/18 06:50:00;;;;;;;7.00;5.93;;;;;;;-3.53;100.00;99370.00;6218911;23;20405;-76
2023/01/18 06:52:26;;;;;;;7.82;6.05;;;;;;;-3.52;100.00;99372.22;6220460;23;20013;-76
2023/01/18 06:54:53;;;;;;;8.15;5.45;;;;;;;-3.50;100.00;99377.03;6220356;23;20033;-77
2023/01/18 06:57:19;;;;;;;9.10;5.90;;;;;;;-3.46;100.00;99382.97;6220790;23;20017;-77
2023/01/18 06:59:46;;;;;;;6.93;5.45;;;;;;;-3.47;100.00;99381.50;6219981;23;20017;-76
2023/01/18 07:02:15;;;;;;;9.50;5.18;;;;;;;-3.46;100.00;99375.91;6220066;23;20021;-76
2023/01/18 07:04:44;;;;;;;10.50;6.05;;;;;;;-3.45;100.00;99376.66;6220350;23;20024;-77
2023/01/18 07:07:12;;;;;;;6.78;4.93;;;;;;;-3.47;100.00;99376.28;6220151;23;20025;-75
2023/01/18 07:09:38;;;;;;;8.50;5.00;;;;;;;-3.46;100.00;99383.72;6220487;23;20013;-76
2023/01/18 07:12:05;;;;;;;7.40;5.38;;;;;;;-3.47;100.00;99382.25;6193164;23;20017;-75
2023/01/18 07:14:32;;;;;;;12.57;5.35;;;;;;;-3.48;100.00;99388.56;6219967;23;20103;-75
2023/01/18 07:17:01;;;;;;;10.32;6.07;;;;;;;-3.48;100.00;99390.41;6169993;23;20024;-76
2023/01/18 07:19:28;;;;;;;12.68;5.75;;;;;;;-3.50;100.00;99388.19;6220376;23;20022;-75
2023/01/18 07:21:54;;;;;;;8.52;5.10;;;;;;;-3.50;100.00;99392.66;6219705;23;20045;-75
2023/01/18 07:24:21;;;;;;;7.35;4.82;;;;;;;-3.51;100.00;99401.56;6220221;23;20025;-76
2023/01/18 07:26:47;;;;;;;8.80;5.40;;;;;;;-3.52;100.00;99398.25;6220242;23;20020;-76
2023/01/18 07:29:14;;;;;;;8.18;5.95;;;;;;;-3.50;100.00;99397.88;6219630;23;20013;-73
2023/01/18 07:31:40;;;;;;;9.25;5.65;;;;;;;-3.50;100.00;99408.25;6220587;23;20062;-76
2023/01/18 07:34:08;;;;;;;6.00;5.18;;;;;;;-3.50;100.00;99409.00;6219989;23;20028;-77
2023/01/18 07:36:37;;;;;;;8.82;5.65;;;;;;;-3.50;100.00;99405.66;6220430;23;20013;-77
2023/01/18 07:39:05;;;;;;;9.00;5.63;;;;;;;-3.50;100.00;99405.66;6193034;23;20017;-76
2023/01/18 07:41:32;;;;;;;7.35;5.20;;;;;;;-3.48;100.00;99409.38;6193142;23;20021;-76
2023/01/18 07:43:59;;;;;;;7.20;5.15;;;;;;;-3.42;100.00;99409.72;6192727;23;20012;-77
2023/01/18 07:46:26;;;;;;;10.38;4.60;;;;;;;-3.38;100.00;99418.28;6220286;23;20088;-75
2023/01/18 07:48:53;;;;;;;7.22;4.32;;;;;;;-3.31;100.00;99422.72;6219331;23;20052;-75
2023/01/18 07:51:23;;;;;;;9.57;4.65;;;;;;;-3.30;100.00;99419.75;6220344;23;20435;-75
2023/01/18 07:53:54;;;;;;;8.20;5.13;;;;;;;-3.25;100.00;99421.22;6219829;23;20454;-75
2023/01/18 07:56:24;;;;;;;9.27;4.85;;;;;;;-3.24;100.00;99431.25;6193022;23;20021;-75
2023/01/18 07:58:51;;;;;;;5.85;4.75;;;;;;;-3.24;100.00;99427.91;6219171;23;20439;-75
2023/01/18 08:01:20;;;;;;;9.95;5.00;;;;;;;-3.25;100.00;99423.81;6219888;23;20047;-75
2023/01/18 08:03:48;;;;;;;7.38;4.65;;;;;;;-3.22;100.00;99433.47;6220208;23;20412;-76
2023/01/18 08:06:26;;;;;;;7.40;5.63;;;;;;;-3.20;100.00;99431.97;6220174;23;20024;-76
2023/01/18 08:08:56;;;;;;;9.25;5.68;;;;;;;-3.18;100.00;99434.19;6193135;23;20017;-75
2023/01/18 08:11:22;;;;;;;12.82;5.75;;;;;;;-3.18;100.00;99442.00;6219676;23;20142;-76
2023/01/18 08:13:51;;;;;;;13.15;6.00;;;;;;;-3.16;100.00;99442.34;6218918;23;20088;-75
2023/01/18 08:16:26;;;;;;;8.40;5.88;;;;;;;-3.11;100.00;99452.38;6195406;23;20108;-75
2023/01/18 08:18:52;;;;;;;13.45;6.50;;;;;;;-3.08;100.00;99449.03;6219716;23;20514;-75
2023/01/18 08:21:19;;;;;;;9.23;5.72;;;;;;;-3.02;100.00;99456.06;6219520;23;20020;-75
2023/01/18 08:23:45;;;;;;;10.23;6.05;;;;;;;-2.96;100.00;99466.09;6219887;23;20152;-75
2023/01/18 08:26:13;;;;;;;5.82;5.20;;;;;;;-2.91;100.00;99476.88;6219478;23;20017;-76
2023/01/18 08:28:40;;;;;;;9.13;5.50;;;;;;;-2.86;100.00;99473.13;6219741;23;20312;-75
2023/01/18 08:31:18;;;;;;;9.52;5.90;;;;;;;-2.81;100.00;99470.88;6219323;23;20021;-76
2023/01/18 08:33:47;;;;;;;10.77;5.90;;;;;;;-2.75;100.00;99476.41;6220537;23;20025;-76
2023/01/18 08:36:19;;;;;;;10.82;5.72;;;;;;;-2.66;100.00;99473.41;6221018;23;20071;-76
2023/01/18 08:38:47;;;;;;;;;;;;;;;-2.57;100.00;99473.72;6221782;23;20467;-78
2023/01/18 08:41:13;;;;;;;7.53;5.30;;;;;;;-2.51;100.00;99480.78;6220442;23;19971;-76
2023/01/18 08:43:40;;;;;;;8.27;4.95;;;;;;;-2.46;100.00;99487.44;6221212;23;20352;-76
2023/01/18 08:46:06;;;;;;;8.65;5.95;;;;;;;-2.43;100.00;99487.44;6220958;23;20109;-76
2023/01/18 08:48:33;;;;;;;8.10;6.10;;;;;;;-2.40;100.00;99481.44;6220767;23;20079;-76
2023/01/18 08:51:01;;;;;;;9.77;6.25;;;;;;;-2.37;100.00;99483.28;6221053;23;20021;-76
2023/01/18 08:53:29;;;;;;;11.68;5.53;;;;;;;-2.30;100.00;99486.97;6220875;23;20021;-76
2023/01/18 08:55:56;;;;;;;7.50;5.85;;;;;;;-2.28;100.00;99489.94;6219809;23;20016;-76
2023/01/18 08:58:23;;;;;;;10.65;6.05;;;;;;;-2.23;100.00;99495.50;6220121;23;20088;-76
2023/01/18 09:00:49;;;;;;;9.57;6.93;;;;;;;-2.18;100.00;99494.34;6219682;23;20021;-76
2023/01/18 09:03:20;;;;;;;10.10;5.68;;;;;;;-2.12;100.00;99498.03;6220362;23;20097;-76
2023/01/18 09:05:48;;;;;;;12.32;6.85;;;;;;;-2.06;100.00;99505.06;6220885;23;20017;-76
2023/01/18 09:08:15;;;;;;;7.88;5.65;;;;;;;-2.00;100.00;99502.81;6220597;23;20013;-76
2023/01/18 09:10:41;;;;;;;9.15;6.28;;;;;;;-1.91;100.00;99503.09;6193317;23;20021;-76
2023/01/18 09:13:09;;;;;;;11.00;6.07;;;;;;;-1.85;100.00;99513.84;6220155;23;20021;-76
2023/01/18 09:15:37;;;;;;;9.98;6.25;;;;;;;-1.81;100.00;99509.34;6193930;23;20080;-76
2023/01/18 09:18:05;;;;;;;10.00;6.35;;;;;;;-1.78;100.00;99519.75;6193638;23;20027;-76
2023/01/18 09:20:34;;;;;;;8.55;6.13;;;;;;;-1.72;100.00;99510.41;6220478;23;20020;-76
2023/01/18 09:23:06;;;;;;;10.68;6.55;;;;;;;-1.63;100.00;99517.78;6219914;23;20439;-76
2023/01/18 09:25:35;;;;;;;7.88;5.82;;;;;;;-1.55;100.00;99516.56;6220102;23;20351;-76
2023/01/18 09:28:03;;;;;;;12.35;6.82;;;;;;;-1.49;100.00;99519.53;6220144;23;20020;-76
2023/01/18 09:30:29;;;;;;;11.98;6.30;;;;;;;-1.45;100.00;99528.81;6220241;23;20041;-76
2023/01/18 09:32:57;;;;;;;11.63;7.07;;;;;;;-1.38;100.00;99528.75;6193472;23;20438;-76
2023/01/18 09:35:24;;;;;;;13.02;7.28;;;;;;;-1.34;100.00;99539.16;6220744;23;20040;-76
2023/01/18 09:37:50;;;;;;;8.32;5.72;;;;;;;-1.30;100.00;99534.66;6220481;23;20048;-76
2023/01/18 09:40:20;;;;;;;10.30;6.78;;;;;;;-1.18;100.00;99536.75;6219940;23;20398;-76
2023/01/18 09:42:50;;;;;;;9.85;6.75;;;;;;;-1.15;100.00;99533.34;6193538;23;20459;-76
2023/01/18 09:45:27;;;;;;;11.02;6.75;;;;;;;-1.10;100.00;99543.38;6220007;23;20024;-76
2023/01/18 09:48:05;;;;;;;12.45;7.07;;;;;;;-1.03;100.00;99537.34;6220237;23;20415;-76
2023/01/18 09:50:42;;;;;;;8.63;6.72;;;;;;;-0.96;100.00;99537.28;6220560;22;20040;-76
2023/01/18 09:53:28;;;;;;;14.15;7.20;;;;;;;-0.91;100.00;99547.31;6193781;23;20408;-76
2023/01/18 09:56:03;;;;;;;12.57;7.47;;;;;;;-0.83;100.00;99540.13;6220334;23;20418;-76
2023/01/18 09:58:52;;;;;;;15.18;7.28;;;;;;;-0.79;100.00;99544.16;6220638;23;20429;-76
2023/01/18 10:01:24;;;;;;;11.20;6.72;;;;;;;-0.73;100.00;99554.94;6193551;23;20021;-77
2023/01/18 10:04:20;;;;;;;8.23;6.10;;;;;;;-0.67;100.00;99551.50;6220519;23;20391;-76
2023/01/18 10:06:59;;;;;;;11.75;7.35;;;;;;;-0.61;100.00;99558.91;6193854;23;20028;-77
2023/01/18 10:09:40;;;;;;;11.93;6.43;;;;;;;-0.56;100.00;99550.63;6220216;23;20096;-77
2023/01/18 10:12:38;;;;;;;10.05;7.25;;;;;;;-0.50;100.00;99546.47;6193654;23;20013;-77
2023/01/18 10:15:19;;;;;;;10.25;6.45;;;;;;;-0.42;100.00;99545.97;6220081;23;20470;-78
2023/01/18 10:17:48;;;;;;;11.55;6.40;;;;;;;-0.36;100.00;99551.50;6220691;23;20014;-77
2023/01/18 10:20:30;;;;;;;7.85;5.93;;;;;;;-0.30;100.00;99549.91;6220652;23;20447;-77
2023/01/18 10:23:25;;;;;;;12.00;6.35;;;;;;;-0.22;100.00;99553.19;6220256;23;20451;-78
2023/01/18 10:26:08;;;;;;;11.30;7.00;;;;;;;-0.17;100.00;99542.28;6203448;23;20017;-81
2023/01/18 10:28:47;;;;;;;11.57;6.95;;;;;;;-0.14;100.00;99546.72;6193778;23;20017;-76
2023/01/18 10:31:52;;;;;;;13.35;7.65;;;;;;;-0.12;100.00;99549.69;6220533;23;20097;-75
2023/01/18 10:34:22;;;;;;;166.13;72.70;;;;;;;-0.02;100.00;99541.69;6220017;23;20033;-75
2023/01/18 10:36:54;;;;;;;21.02;12.43;;;;;;;0.00;100.00;99542.03;6219128;23;20458;-74
2023/01/18 10:39:36;;;;;;;18.67;8.35;;;;;;;0.05;100.00;99540.09;6220626;23;20020;-76
2023/01/18 10:42:09;;;;;;;9.27;6.78;;;;;;;0.09;100.00;99544.13;6220254;23;20013;-74
2023/01/18 10:44:36;;;;;;;15.63;6.68;;;;;;;0.14;100.00;99535.09;6220424;23;20358;-76
2023/01/18 10:47:02;;;;;;;13.05;7.70;;;;;;;0.18;99.96;99548.88;6220054;23;20048;-76
2023/01/18 10:49:39;;;;;;;15.35;8.05;;;;;;;0.23;100.00;99556.28;6205489;23;20056;-74
2023/01/18 10:52:16;;;;;;;16.45;8.27;;;;;;;0.27;99.73;99551.72;6218244;23;20481;-74
2023/01/18 10:55:00;;;;;;;13.50;7.32;;;;;;;0.28;99.66;99556.56;6220456;22;20013;-74
2023/01/18 10:57:30;;;;;;;10.85;7.75;;;;;;;0.35;99.33;99570.69;6219921;22;20348;-75
2023/01/18 10:59:58;;;;;;;13.20;7.80;;;;;;;0.38;99.13;99556.81;6220248;22;20021;-76
2023/01/18 11:02:37;;;;;;;11.80;7.63;;;;;;;0.44;98.95;99566.41;6218269;23;20021;-77
2023/01/18 11:05:26;;;;;;;17.75;7.68;;;;;;;0.51;98.61;99562.94;6218215;23;20017;-77
2023/01/18 11:08:18;;;;;;;11.65;7.13;;;;;;;0.56;98.47;99557.25;6219526;22;20076;-75
2023/01/18 11:10:45;;;;;;;14.60;8.02;;;;;;;0.59;98.28;99565.06;6218920;23;20031;-75
2023/01/18 11:13:42;;;;;;;11.02;7.90;;;;;;;0.65;98.28;99570.56;6221272;22;20459;-75
2023/01/18 11:16:21;;;;;;;10.63;7.00;;;;;;;0.69;98.08;99567.91;6219854;22;20052;-76
2023/01/18 11:18:58;;;;;;;12.52;7.15;;;;;;;0.77;97.63;99572.63;6220217;23;20447;-77
2023/01/18 11:21:31;;;;;;;16.17;7.90;;;;;;;0.85;97.25;99575.84;6219946;22;20024;-75
2023/01/18 11:24:05;;;;;;;13.23;7.38;;;;;;;0.90;96.90;99578.75;6220618;22;20017;-76
2023/01/18 11:26:33;;;;;;;15.13;7.95;;;;;;;0.94;96.65;99582.03;6220592;22;20470;-75
2023/01/18 11:29:01;;;;;;;12.80;7.13;;;;;;;1.00;96.52;99579.69;6220793;22;20021;-74
2023/01/18 11:31:42;;;;;;;17.30;8.00;;;;;;;1.05;95.92;99581.13;6220554;22;20017;-75
2023/01/18 11:34:21;;;;;;;22.02;8.02;;;;;;;1.09;95.88;99579.91;6220288;22;20045;-75
2023/01/18 11:36:48;;;;;;;13.82;6.80;;;;;;;1.14;95.73;99581.31;6220007;22;20462;-73
2023/01/18 11:39:23;;;;;;;10.45;7.72;;;;;;;1.17;95.32;99570.78;6220482;22;20025;-75
2023/01/18 11:42:08;;;;;;;8.63;6.72;;;;;;;1.25;95.12;99576.59;6220174;22;20463;-76
2023/01/18 11:44:37;;;;;;;11.02;6.50;;;;;;;1.31;94.63;99575.00;6218915;23;20021;-75
2023/01/18 11:47:08;;;;;;;8.95;7.10;;;;;;;1.34;94.48;99571.56;6219574;23;20013;-77
2023/01/18 11:49:43;;;;;;;13.13;7.53;;;;;;;1.39;94.37;99575.59;6219031;22;20021;-75
2023/01/18 11:52:28;;;;;;;16.88;7.80;;;;;;;1.41;94.21;99578.56;6220478;23;20095;-75
2023/01/18 11:54:59;;;;;;;16.77;7.47;;;;;;;1.46;94.20;99578.09;6219883;23;20017;-74
2023/01/18 11:57:27;;;;;;;15.23;7.75;;;;;;;1.48;93.99;99573.91;6193295;23;20027;-75
2023/01/18 11:59:53;;;;;;;10.18;7.60;;;;;;;1.50;93.94;99579.50;6219932;23;20432;-75
2023/01/18 12:02:55;;;;;;;18.55;8.15;;;;;;;1.54;93.80;99574.19;6219718;23;20439;-74
2023/01/18 12:05:39;;;;;;;10.88;7.13;;;;;;;1.56;93.55;99580.50;6219656;23;20021;-75
2023/01/18 12:08:37;;;;;;;11.90;7.05;;;;;;;1.62;93.19;99575.50;6219699;23;20017;-74
2023/01/18 12:11:13;;;;;;;13.02;6.90;;;;;;;1.66;93.27;99579.53;6219605;23;20470;-75
2023/01/18 12:14:04;;;;;;;9.88;6.22;;;;;;;1.71;93.17;99588.81;6220192;23;20013;-74